Time;durP1;ratioP1;P1;durP2;ratioP2;P2;SDS_P1;SDS_P2;PMS_P1;PMS_P2;Temp;Humidity;BMP_temperature;BMP_pressure;BME280_temperature;BME280_humidity;BME280_pressure;Samples;Min_cycle;Max_cycle;Signal;HPM_P1;HPM_P2
2021/05/17 00:02:23;;;;;;;;;;;;;;;14.58;100.00;98379.38;1707917;83;20581;-71
2021/05/17 00:04:50;;;;;;;;;;;;;;;14.58;100.00;98392.87;1707720;84;20583;-74
2021/05/17 00:07:19;;;;;;;;;;;;;;;14.51;100.00;98403.28;1707766;84;21014;-74
2021/05/17 00:09:46;;;;;;;;;;;;;;;14.34;100.00;98404.51;1706250;84;20232;-69
2021/05/17 00:12:17;;;;;;;;;;;;;;;14.21;100.00;98397.25;1707516;83;20186;-72
2021/05/17 00:14:46;;;;;;;;;;;;;;;14.15;100.00;98403.32;1707738;83;20204;-74
2021/05/17 00:17:12;;;;;;;;;;;;;;;14.11;100.00;98414.47;1707585;84;20804;-70
2021/05/17 00:19:40;;;;;;;;;;;;;;;14.08;100.00;98423.17;1707701;84;21739;-69
2021/05/17 00:22:10;;;;;;;;;;;;;;;14.02;100.00;98414.97;1707577;83;20177;-69
2021/05/17 00:24:37;;;;;;;;;;;;;;;13.98;100.00;98423.41;1707753;84;20248;-74
2021/05/17 00:27:05;;;;;;;;;;;;;;;13.93;100.00;98427.02;1706922;84;20188;-73
2021/05/17 00:29:34;;;;;;;;;;;;;;;13.93;100.00;98425.10;1707239;84;20261;-72
2021/05/17 00:32:01;;;;;;;;;;;;;;;13.93;100.00;98431.05;1685966;84;23209;-69
2021/05/17 00:34:28;;;;;;;;;;;;;;;13.89;100.00;98440.32;1707492;84;20674;-72
2021/05/17 00:36:57;;;;;;;;;;;;;;;13.91;100.00;98444.05;1707643;83;20220;-74
2021/05/17 00:39:25;;;;;;;;;;;;;;;13.91;100.00;98442.17;1707624;84;20245;-73
2021/05/17 00:41:54;;;;;;;;;;;;;;;13.87;100.00;98445.77;1687750;84;20249;-71
2021/05/17 00:44:21;;;;;;;;;;;;;;;13.91;100.00;98452.14;1707371;84;21055;-72
2021/05/17 00:46:47;;;;;;;;;;;;;;;13.98;100.00;98448.48;1707700;84;20597;-72
2021/05/17 00:49:14;;;;;;;;;;;;;;;13.99;100.00;98445.22;1707607;83;20571;-71
2021/05/17 00:51:43;;;;;;;;;;;;;;;14.03;100.00;98440.83;1707496;83;20237;-71
2021/05/17 00:54:09;;;;;;;;;;;;;;;14.03;100.00;98442.97;1707847;84;20205;-73
2021/05/17 00:56:37;;;;;;;;;;;;;;;14.08;100.00;98445.55;1707565;84;20617;-72
2021/05/17 00:59:05;;;;;;;;;;;;;;;14.11;100.00;98436.05;1707452;83;20208;-72
2021/05/17 01:01:33;;;;;;;;;;;;;;;14.14;100.00;98437.61;1707701;84;20244;-72
2021/05/17 01:04:01;;;;;;;;;;;;;;;14.20;100.00;98436.14;1679128;84;21459;-71
2021/05/17 01:06:32;;;;;;;;;;;;;;;14.23;100.00;98436.88;1706335;84;20264;-69
2021/05/17 01:09:07;;;;;;;;;;;;;;;14.24;100.00;98429.05;1686654;84;21079;-70
2021/05/17 01:11:37;;;;;;;;;;;;;;;14.22;100.00;98425.28;1707738;84;20210;-67
2021/05/17 01:14:07;;;;;;;;;;;;;;;14.18;100.00;98413.50;1707728;83;20548;-71
2021/05/17 01:16:35;;;;;;;;;;;;;;;14.11;100.00;98410.42;1707652;84;20579;-71
2021/05/17 01:19:10;;;;;;;;;;;;;;;14.08;100.00;98397.55;1707670;84;20209;-70
2021/05/17 01:21:40;;;;;;;;;;;;;;;14.00;100.00;98400.97;1695550;83;21105;-71
2021/05/17 01:24:09;;;;;;;;;;;;;;;13.93;100.00;98391.95;1696767;84;20178;-70
2021/05/17 01:26:37;;;;;;;;;;;;;;;13.89;100.00;98385.02;1707512;84;20587;-70
2021/05/17 01:29:07;;;;;;;;;;;;;;;13.83;100.00;98381.38;1705370;83;20587;-70
2021/05/17 01:31:36;;;;;;;;;;;;;;;13.80;100.00;98384.14;1704357;84;20189;-72
2021/05/17 01:34:04;;;;;;;;;;;;;;;13.77;100.00;98379.89;1707533;84;21740;-70
2021/05/17 01:36:32;;;;;;;;;;;;;;;13.72;100.00;98378.92;1687346;84;20244;-70
2021/05/17 01:38:59;;;;;;;;;;;;;;;13.71;100.00;98378.66;1707578;84;20181;-70
2021/05/17 01:41:26;;;;;;;;;;;;;;;13.66;100.00;98381.45;1704673;83;20589;-73
2021/05/17 01:43:56;;;;;;;;;;;;;;;13.65;100.00;98379.88;1707622;83;20181;-71
2021/05/17 01:46:31;;;;;;;;;;;;;;;13.62;100.00;98380.48;1710945;83;21758;-70
2021/05/17 01:48:59;;;;;;;;;;;;;;;13.60;100.00;98368.41;1701944;84;20791;-72
2021/05/17 01:51:27;;;;;;;;;;;;;;;13.59;100.00;98367.59;1707546;84;20220;-72
2021/05/17 01:53:56;;;;;;;;;;;;;;;13.54;100.00;98360.96;1686625;84;20177;-71
2021/05/17 01:56:24;;;;;;;;;;;;;;;13.48;100.00;98357.58;1707491;83;20312;-70
2021/05/17 01:58:53;;;;;;;;;;;;;;;13.46;100.00;98358.98;1707622;84;21031;-71
2021/05/17 02:01:21;;;;;;;;;;;;;;;13.43;100.00;98355.55;1707466;84;20201;-71
2021/05/17 02:03:51;;;;;;;;;;;;;;;13.42;100.00;98357.98;1707380;84;20579;-71
2021/05/17 02:06:19;;;;;;;;;;;;;;;13.43;100.00;98357.69;1707494;83;20217;-70
2021/05/17 02:08:49;;;;;;;;;;;;;;;13.44;100.00;98361.18;1707405;84;20577;-71
2021/05/17 02:11:19;;;;;;;;;;;;;;;13.38;100.00;98354.31;1707418;83;21016;-70
2021/05/17 02:13:48;;;;;;;;;;;;;;;13.37;100.00;98361.58;1706483;84;20148;-70
2021/05/17 02:16:17;;;;;;;;;;;;;;;13.36;100.00;98357.30;1707614;84;20192;-70
2021/05/17 02:18:48;;;;;;;;;;;;;;;13.32;100.00;98358.20;1707556;84;20212;-71
2021/05/17 02:21:17;;;;;;;;;;;;;;;13.27;100.00;98350.45;1706814;84;20201;-71
2021/05/17 02:23:44;;;;;;;;;;;;;;;13.24;100.00;98349.69;1707612;83;21055;-70
2021/05/17 02:26:11;;;;;;;;;;;;;;;13.23;100.00;98351.35;1707332;83;20328;-70
2021/05/17 02:28:40;;;;;;;;;;;;;;;13.23;100.00;98344.62;1707444;83;20217;-71
2021/05/17 02:31:08;;;;;;;;;;;;;;;13.24;100.00;98338.11;1707479;83;20240;-69
2021/05/17 02:33:35;;;;;;;;;;;;;;;13.22;100.00;98332.22;1707682;84;20208;-69
2021/05/17 02:36:04;;;;;;;;;;;;;;;13.20;100.00;98331.72;1707717;84;20993;-70
2021/05/17 02:38:31;;;;;;;;;;;;;;;13.18;100.00;98328.52;1707589;83;20569;-71
2021/05/17 02:40:57;;;;;;;;;;;;;;;13.17;100.00;98326.39;1707436;83;20260;-72
2021/05/17 02:43:24;;;;;;;;;;;;;;;13.20;100.00;98320.39;1707648;84;20175;-73
2021/05/17 02:45:55;;;;;;;;;;;;;;;13.23;100.00;98324.41;1707596;84;20188;-71
2021/05/17 02:48:27;;;;;;;;;;;;;;;13.26;100.00;98320.55;1691504;84;21081;-71
2021/05/17 02:50:51;;;;;;;;;;;;;;;13.31;100.00;98309.45;1707566;83;20180;-73
2021/05/17 02:53:29;;;;;;;;;;;;;;;13.26;100.00;98300.89;1696092;84;20152;-71
2021/05/17 02:55:58;;;;;;;;;;;;;;;13.23;100.00;98294.77;1707472;83;20726;-70
2021/05/17 02:58:28;;;;;;;;;;;;;;;13.21;100.00;98290.23;1707521;83;20189;-73
2021/05/17 03:01:05;;;;;;;;;;;;;;;13.16;100.00;98283.05;1707361;83;21127;-71
2021/05/17 03:03:31;;;;;;;;;;;;;;;13.08;100.00;98277.81;1701680;83;20244;-72
2021/05/17 03:06:05;;;;;;;;;;;;;;;13.05;100.00;98277.05;1686748;84;20201;-71
2021/05/17 03:08:39;;;;;;;;;;;;;;;13.06;100.00;98266.54;1707411;83;20189;-71
2021/05/17 03:11:05;;;;;;;;;;;;;;;13.08;100.00;98260.84;1706883;83;20189;-71
2021/05/17 03:13:32;;;;;;;;;;;;;;;13.13;100.00;98264.80;1707588;83;21080;-70
2021/05/17 03:15:58;;;;;;;;;;;;;;;13.18;100.00;98261.99;1707340;84;20205;-70
2021/05/17 03:18:25;;;;;;;;;;;;;;;13.21;100.00;98253.30;1707644;83;20181;-72
2021/05/17 03:20:52;;;;;;;;;;;;;;;13.26;100.00;98256.44;1707690;84;20185;-70
2021/05/17 03:23:21;;;;;;;;;;;;;;;13.31;100.00;98256.91;1707575;84;20157;-71
2021/05/17 03:25:50;;;;;;;;;;;;;;;13.31;100.00;98260.39;1707403;84;20208;-72
2021/05/17 03:28:21;;;;;;;;;;;;;;;13.29;100.00;98255.85;1687784;84;20208;-71
2021/05/17 03:30:49;;;;;;;;;;;;;;;13.27;100.00;98256.70;1707515;84;20209;-69
2021/05/17 03:33:17;;;;;;;;;;;;;;;13.22;100.00;98257.58;1707541;83;20180;-70
2021/05/17 03:35:45;;;;;;;;;;;;;;;13.21;100.00;98261.38;1707684;83;20164;-70
2021/05/17 03:38:12;;;;;;;;;;;;;;;13.20;100.00;98255.73;1707339;83;21515;-72
2021/05/17 03:40:39;;;;;;;;;;;;;;;13.23;100.00;98254.35;1707273;84;20220;-72
2021/05/17 03:43:06;;;;;;;;;;;;;;;13.27;100.00;98256.70;1707541;84;20273;-70
2021/05/17 03:45:32;;;;;;;;;;;;;;;13.33;100.00;98260.07;1707356;84;20228;-69
2021/05/17 03:47:59;;;;;;;;;;;;;;;13.34;100.00;98253.59;1707446;83;20578;-70
2021/05/17 03:50:25;;;;;;;;;;;;;;;13.35;100.00;98258.70;1707768;83;21031;-71
2021/05/17 03:52:54;;;;;;;;;;;;;;;13.38;100.00;98259.43;1707346;84;20201;-71
2021/05/17 03:55:20;;;;;;;;;;;;;;;13.41;100.00;98256.12;1707199;84;20252;-70
2021/05/17 03:57:47;;;;;;;;;;;;;;;13.50;100.00;98260.25;1707376;83;20503;-70
2021/05/17 04:00:15;;;;;;;;;;;;;;;13.61;100.00;98256.76;1707496;83;20196;-72
2021/05/17 04:02:44;;;;;;;;;;;;;;;13.71;100.00;98260.56;1707664;83;21891;-70
2021/05/17 04:05:32;;;;;;;;;;;;;;;13.79;100.00;98259.85;1707490;83;20165;-71
2021/05/17 04:15:46;;;;;;;;;;;;;;;13.91;100.00;98256.58;1707520;84;21063;-70
2021/05/17 04:18:13;;;;;;;;;;;;;;;13.94;100.00;98254.64;1707466;83;20556;-72
2021/05/17 04:20:40;;;;;;;;;;;;;;;13.97;100.00;98250.53;1707509;84;20180;-71
2021/05/17 04:23:11;;;;;;;;;;;;;;;13.96;100.00;98248.36;1707476;84;20792;-72
2021/05/17 04:25:37;;;;;;;;;;;;;;;13.98;100.00;98253.45;1707513;84;20216;-73
2021/05/17 04:28:04;;;;;;;;;;;;;;;14.09;100.00;98257.50;1707555;84;21591;-69
2021/05/17 04:30:31;;;;;;;;;;;;;;;14.12;100.00;98256.88;1707519;83;20208;-71
2021/05/17 04:32:58;;;;;;;;;;;;;;;14.11;100.00;98253.39;1707448;84;20169;-70
2021/05/17 04:35:25;;;;;;;;;;;;;;;14.13;100.00;98256.59;1707406;83;20200;-73
2021/05/17 04:37:52;;;;;;;;;;;;;;;14.20;100.00;98243.19;1707455;84;20160;-70
2021/05/17 04:40:18;;;;;;;;;;;;;;;14.22;100.00;98237.73;1707598;84;21035;-71
2021/05/17 04:42:46;;;;;;;;;;;;;;;14.21;100.00;98232.10;1707487;84;20169;-71
2021/05/17 04:45:13;;;;;;;;;;;;;;;14.26;100.00;98214.98;1707733;84;20285;-71
2021/05/17 04:47:39;;;;;;;;;;;;;;;14.36;100.00;98216.84;1707553;83;20208;-72
2021/05/17 04:50:08;;;;;;;;;;;;;;;14.43;100.00;98212.36;1707532;84;20276;-72
2021/05/17 04:52:35;;;;;;;;;;;;;;;14.43;100.00;98216.41;1707663;84;21070;-71
2021/05/17 04:55:02;;;;;;;;;;;;;;;14.44;100.00;98215.28;1692624;84;20174;-72
2021/05/17 04:57:28;;;;;;;;;;;;;;;14.46;100.00;98213.64;1690947;83;20166;-72
2021/05/17 04:59:56;;;;;;;;;;;;;;;14.50;100.00;98218.63;1691666;84;20281;-74
2021/05/17 05:05:52;;;;;;;;;;;;;;;14.61;100.00;98218.64;1562130;91;21182;-73
2021/05/17 05:11:31;;;;;;;;;;;;;;;14.83;100.00;98215.05;1523577;92;20642;-75
2021/05/17 05:14:09;;;;;;;;;;;;;;;14.94;100.00;98216.89;1472542;96;20250;-71
2021/05/17 05:16:29;;;;;;;;;;;;;;;15.03;100.00;98220.97;1472210;96;20381;-71
2021/05/17 05:18:59;;;;;;;;;;;;;;;15.10;100.00;98231.55;1472394;96;20309;-71
2021/05/17 05:21:36;;;;;;;;;;;;;;;15.13;100.00;98229.56;1472258;96;20238;-72
2021/05/17 05:24:22;;;;;;;;;;;;;;;15.13;100.00;98230.91;1447380;97;20620;-72
2021/05/17 05:35:47;;;;;;;;;;;;;;;14.84;100.00;98242.85;1405255;100;20256;-72
2021/05/17 05:38:30;;;;;;;;;;;;;;;14.73;100.00;98241.79;1389571;101;20379;-72
2021/05/17 05:41:27;;;;;;;;;;;;;;;14.67;100.00;98244.94;1407008;100;20243;-74
2021/05/17 05:44:12;;;;;;;;;;;;;;;14.65;100.00;98243.92;1432852;99;20316;-73
2021/05/17 05:46:42;;;;;;;;;;;;;;;14.58;100.00;98243.02;1431053;99;20477;-74
2021/05/17 05:49:29;;;;;;;;;;;;;;;;;;;;;
2021/05/17 05:51:54;;;;;;;;;;;;;;;14.51;100.00;98252.08;1437264;98;20305;-72
2021/05/17 05:54:29;;;;;;;;;;;;;;;14.50;100.00;98251.03;1457187;98;20344;-73
2021/05/17 05:56:59;;;;;;;;;;;;;;;14.48;100.00;98247.31;1457427;97;20590;-71
2021/05/17 05:59:29;;;;;;;;;;;;;;;14.50;100.00;98246.98;1471948;96;22453;-72
2021/05/17 06:01:58;;;;;;;;;;;;;;;14.53;100.00;98240.98;1448539;98;21212;-73
2021/05/17 06:04:26;;;;;;;;;;;;;;;14.63;100.00;98229.14;1464996;96;20262;-73
2021/05/17 06:06:53;;;;;;;;;;;;;;;14.76;100.00;98220.91;1447764;98;20264;-72
2021/05/17 06:09:25;;;;;;;;;;;;;;;14.89;100.00;98217.83;1477125;96;20284;-72
2021/05/17 06:11:55;;;;;;;;;;;;;;;15.09;100.00;98216.46;1485531;96;21072;-72
2021/05/17 06:14:23;;;;;;;;;;;;;;;15.33;100.00;98216.55;1485689;95;20322;-71
2021/05/17 06:16:51;;;;;;;;;;;;;;;15.47;100.00;98215.05;1485642;96;20695;-71
2021/05/17 06:19:18;;;;;;;;;;;;;;;15.56;100.00;98209.09;1485700;96;20299;-71
2021/05/17 06:21:46;;;;;;;;;;;;;;;15.65;100.00;98213.38;1530254;90;20691;-73
2021/05/17 06:24:14;;;;;;;;;;;;;;;15.67;100.00;98208.98;1616434;86;21348;-72
2021/05/17 06:26:41;;;;;;;;;;;;;;;15.68;100.00;98220.59;1640293;87;20225;-73
2021/05/17 06:29:09;;;;;;;;;;;;;;;15.76;100.00;98208.45;1640463;86;20271;-73
2021/05/17 06:31:54;;;;;;;;;;;;;;;15.90;100.00;98212.34;1643366;86;20658;-73
2021/05/17 06:34:11;;;;;;;;;;;;;;;16.01;100.00;98218.20;1635913;87;20269;-72
2021/05/17 06:36:41;;;;;;;;;;;;;;;15.98;100.00;98218.28;1638585;87;21081;-73
2021/05/17 06:39:12;;;;;;;;;;;;;;;15.99;100.00;98210.95;1640271;87;20153;-72
2021/05/17 06:44:34;;;;;;;;;;;;;;;15.89;100.00;98206.67;1563785;91;20151;-73
2021/05/17 06:47:14;;;;;;;;;;;;;;;15.95;100.00;98197.28;1525983;91;20313;-72
2021/05/17 06:50:37;;;;;;;;;;;;;;;16.12;100.00;98195.63;1600266;89;21046;-74
2021/05/17 06:53:51;;;;;;;;;;;;;;;16.25;100.00;98186.52;1574406;89;20280;-74
2021/05/17 06:56:38;;;;;;;;;;;;;;;16.49;100.00;98185.39;1538357;91;20250;-71
2021/05/17 07:01:29;;;;;;;;;;;;;;;16.53;100.00;98186.08;1572114;89;20264;-72
2021/05/17 07:04:00;;;;;;;;;;;;;;;16.46;100.00;98185.23;1569423;90;20288;-71
2021/05/17 07:06:41;;;;;;;;;;;;;;;16.48;100.00;98182.99;1571160;89;20283;-71
2021/05/17 07:12:10;;;;;;;;;;;;;;;16.52;100.00;98167.69;1526207;93;20314;-72
2021/05/17 07:14:32;;;;;;;;;;;;;;;16.42;100.00;98164.79;1526545;92;20338;-73
2021/05/17 07:17:06;;;;;;;;;;;;;;;16.38;100.00;98169.26;1527106;92;21117;-71
2021/05/17 07:19:33;;;;;;;;;;;;;;;16.39;100.00;98170.05;1526297;92;20287;-73
2021/05/17 07:24:53;;;;;;;;;;;;;;;16.38;100.00;98176.03;1529209;92;20644;-73
2021/05/17 07:27:25;;;;;;;;;;;;;;;16.33;100.00;98175.42;1531275;92;20274;-72
2021/05/17 07:29:54;;;;;;;;;;;;;;;16.31;100.00;98181.16;1559529;91;21915;-72
2021/05/17 07:33:00;;;;;;;;;;;;;;;;;;;;;
2021/05/17 07:35:26;;;;;;;;;;;;;;;16.31;100.00;98186.56;1559116;92;20298;-71
2021/05/17 07:38:02;;;;;;;;;;;;;;;16.29;100.00;98187.45;1509425;94;20286;-73
2021/05/17 07:40:36;;;;;;;;;;;;;;;16.34;100.00;98195.95;1506122;94;20619;-72
2021/05/17 07:43:26;;;;;;;;;;;;;;;;;;;;;
2021/05/17 09:00:53;;;;;;;;;;;;;;;17.18;100.00;98214.59;1599065;88;20516;-69
2021/05/17 09:18:35;;;;;;;;;;;;;;;17.03;100.00;98207.83;1498842;94;20569;-67
2021/05/17 09:21:05;;;;;;;;;;;;;;;17.12;100.00;98206.41;1502500;94;20413;-68
2021/05/17 09:23:40;;;;;;;;;;;;;;;17.09;100.00;98214.63;1470417;96;20290;-68
2021/05/17 09:26:10;;;;;;;;;;;;;;;17.10;100.00;98216.23;1446492;97;20568;-67
2021/05/17 09:28:39;;;;;;;;;;;;;;;17.07;100.00;98222.86;1468448;97;21555;-64
2021/05/17 09:31:08;;;;;;;;;;;;;;;16.84;100.00;98227.23;1473838;97;20272;-68
2021/05/17 09:33:48;;;;;;;;;;;;;;;16.72;100.00;98227.89;1473888;95;20343;-68
2021/05/17 09:36:30;;;;;;;;;;;;;;;16.64;100.00;98229.30;1456324;97;20291;-66
2021/05/17 09:39:16;;;;;;;;;;;;;;;16.63;100.00;98228.48;1482372;95;20235;-67
2021/05/17 09:41:45;;;;;;;;;;;;;;;16.53;100.00;98231.56;1451442;96;22237;-67
2021/05/17 09:44:26;;;;;;;;;;;;;;;16.44;100.00;98224.84;1476693;95;20198;-70
2021/05/17 09:47:14;;;;;;;;;;;;;;;16.43;100.00;98223.23;1488851;95;20196;-66
2021/05/17 09:49:44;;;;;;;;;;;;;;;16.43;100.00;98220.52;1487038;95;20531;-67
2021/05/17 09:52:25;;;;;;;;;;;;;;;16.38;100.00;98219.92;1521393;92;20165;-67
2021/05/17 09:55:03;;;;;;;;;;;;;;;16.43;100.00;98214.32;1554910;89;21140;-66
2021/05/17 09:57:39;;;;;;;;;;;;;;;16.54;100.00;98217.48;1618311;87;20165;-64
2021/05/17 10:00:19;;;;;;;;;;;;;;;16.64;100.00;98216.55;1604177;88;20251;-67
2021/05/17 10:02:53;;;;;;;;;;;;;;;16.63;100.00;98216.86;1625013;87;20697;-66
2021/05/17 10:05:30;;;;;;;;;;;;;;;16.68;100.00;98215.32;1613739;87;20150;-66
2021/05/17 10:08:04;;;;;;;;;;;;;;;16.68;100.00;98214.78;1622130;87;21043;-67
2021/05/17 10:10:31;;;;;;;;;;;;;;;16.75;100.00;98214.81;1613467;87;20139;-66
2021/05/17 10:13:01;;;;;;;;;;;;;;;16.76;100.00;98214.50;1621401;87;20507;-68
2021/05/17 10:15:29;;;;;;;;;;;;;;;16.69;100.00;98208.23;1614222;87;20157;-67
2021/05/17 10:18:02;;;;;;;;;;;;;;;16.69;100.00;98208.23;1610386;87;20216;-67
2021/05/17 10:20:26;;;;;;;;;;;;;;;16.72;100.00;98204.86;1596963;87;21093;-66
2021/05/17 10:22:54;;;;;;;;;;;;;;;16.79;100.00;98205.73;1605716;87;20525;-67
2021/05/17 10:25:24;;;;;;;;;;;;;;;16.82;100.00;98202.37;1611327;87;20141;-67
2021/05/17 10:27:53;;;;;;;;;;;;;;;16.86;100.00;98191.12;1622773;87;20982;-69
2021/05/17 10:30:25;;;;;;;;;;;;;;;16.93;100.00;98190.61;1621402;87;20183;-69
2021/05/17 10:33:42;;;;;;;;;;;;;;;16.98;100.00;98193.13;1594902;87;21286;-68
2021/05/17 10:36:15;;;;;;;;;;;;;;;16.91;100.00;98180.65;1626268;87;20340;-69
2021/05/17 10:39:14;;;;;;;;;;;;;;;17.00;100.00;98181.39;1534903;92;20230;-69
2021/05/17 10:42:23;;;;;;;;;;;;;;;16.94;100.00;98181.34;1443575;97;20176;-69
2021/05/17 10:49:00;;;;;;;;;;;;;;;16.95;100.00;98182.91;1420120;99;20209;-70
2021/05/17 10:51:51;;;;;;;;;;;;;;;17.18;100.00;98175.28;1349065;105;20289;-69
2021/05/17 11:06:07;;;;;;;;;;;;;;;18.07;100.00;98152.44;1346436;105;21816;-69
2021/05/17 11:09:22;;;;;;;;;;;;;;;18.28;100.00;98149.64;1343781;105;20577;-69
2021/05/17 11:12:54;;;;;;;;;;;;;;;18.24;100.00;98146.80;1330515;107;20343;-68
2021/05/17 11:19:19;;;;;;;;;;;;;;;18.25;100.00;98142.97;1383043;102;20337;-70
2021/05/17 11:22:11;;;;;;;;;;;;;;;18.28;100.00;98153.72;1376690;102;20563;-70
2021/05/17 11:58:24;;;;;;;;;;;;;;;18.45;100.00;98099.16;1447088;93;20345;-68
2021/05/17 12:01:11;;;;;;;;;;;;;;;18.51;100.00;98077.41;1615491;87;20817;-69
2021/05/17 12:03:54;;;;;;;;;;;;;;;18.54;100.00;98080.79;1602031;87;20186;-75
2021/05/17 12:09:53;;;;;;;;;;;;;;;18.46;100.00;98080.36;1608536;87;20249;-70
2021/05/17 12:12:21;;;;;;;;;;;;;;;18.26;100.00;98079.36;1610326;87;21108;-70
2021/05/17 12:14:56;;;;;;;;;;;;;;;18.07;100.00;98076.41;1609909;87;20304;-68
2021/05/17 12:17:24;;;;;;;;;;;;;;;18.02;100.00;98067.92;1589093;87;20232;-69
2021/05/17 12:20:03;;;;;;;;;;;;;;;17.92;100.00;98075.16;1610534;86;20264;-71
2021/05/17 12:22:40;;;;;;;;;;;;;;;17.93;100.00;98069.95;1578317;87;20238;-68
2021/05/17 12:25:18;;;;;;;;;;;;;;;17.96;100.00;98074.16;1615489;87;21054;-70
2021/05/17 12:27:45;;;;;;;;;;;;;;;18.06;100.00;98076.20;1618807;87;20230;-70
2021/05/17 12:30:25;;;;;;;;;;;;;;;18.04;100.00;98075.74;1592503;89;20759;-69
2021/05/17 12:33:03;;;;;;;;;;;;;;;17.92;100.00;98071.88;1616621;87;20262;-71
2021/05/17 12:35:34;;;;;;;;;;;;;;;17.75;100.00;98076.12;1620464;87;20230;-69
2021/05/17 12:38:13;;;;;;;;;;;;;;;17.60;100.00;98074.86;1626468;87;21203;-71
2021/05/17 12:40:43;;;;;;;;;;;;;;;17.55;100.00;98085.36;1617054;87;20270;-70
2021/05/17 12:43:21;;;;;;;;;;;;;;;17.49;100.00;98079.11;1620301;87;20242;-69
2021/05/17 12:45:51;;;;;;;;;;;;;;;17.34;100.00;98077.83;1618640;87;20333;-69
2021/05/17 12:48:27;;;;;;;;;;;;;;;17.22;100.00;98072.36;1615050;87;20296;-69
2021/05/17 12:50:56;;;;;;;;;;;;;;;17.12;100.00;98073.56;1612308;87;21753;-69
2021/05/17 12:53:28;;;;;;;;;;;;;;;17.02;100.00;98074.77;1606863;87;20213;-68
2021/05/17 13:18:29;;;;;;;;;;;;;;;16.90;100.00;98083.66;1469056;94;20202;-69
2021/05/17 13:36:39;;;;;;;;;;;;;;;16.71;100.00;98084.08;1308362;108;20316;-71
2021/05/17 13:39:55;;;;;;;;;;;;;;;16.74;100.00;98081.27;1311995;107;20356;-70
2021/05/17 13:46:15;;;;;;;;;;;;;;;16.84;100.00;98083.61;1254647;113;20276;-71
2021/05/17 13:49:16;;;;;;;;;;;;;;;16.87;100.00;98091.07;1230262;115;20390;-69
2021/05/17 13:59:14;;;;;;;;;;;;;;;16.84;100.00;98091.73;1256585;112;20414;-68
2021/05/17 14:01:42;;;;;;;;;;;;;;;16.83;100.00;98098.83;1262009;112;20358;-70
2021/05/17 14:11:50;;;;;;;;;;;;;;;16.64;100.00;98100.63;1385228;102;20334;-70
2021/05/17 14:14:35;;;;;;;;;;;;;;;16.54;100.00;98092.33;1365104;103;20573;-70
2021/05/17 14:18:00;;;;;;;;;;;;;;;16.48;100.00;98099.04;1365648;103;20566;-68
2021/05/17 14:21:32;;;;;;;;;;;;;;;16.35;100.00;98094.67;1298265;109;20381;-69
2021/05/17 14:24:21;;;;;;;;;;;;;;;16.26;100.00;98101.47;1317288;107;20373;-69
2021/05/17 14:26:48;;;;;;;;;;;;;;;16.13;100.00;98104.64;1320490;107;20329;-70
2021/05/17 14:29:14;;;;;;;;;;;;;;;16.06;100.00;98105.14;1320270;108;21171;-68
2021/05/17 14:31:41;;;;;;;;;;;;;;;16.01;100.00;98108.03;1332905;106;20561;-69
2021/05/17 14:34:07;;;;;;;;;;;;;;;15.94;100.00;98104.24;1340410;106;20261;-66
2021/05/17 14:36:34;;;;;;;;;;;;;;;15.84;100.00;98100.77;1340705;106;20249;-67
2021/05/17 14:39:01;;;;;;;;;;;;;;;15.80;100.00;98097.67;1344455;106;20267;-69
2021/05/17 14:41:28;;;;;;;;;;;;;;;15.77;100.00;98101.03;1339860;106;21028;-68
2021/05/17 14:43:56;;;;;;;;;;;;;;;15.75;100.00;98104.61;1340010;106;20204;-68
2021/05/17 14:46:22;;;;;;;;;;;;;;;15.76;100.00;98104.87;1340386;106;20268;-68
2021/05/17 14:48:50;;;;;;;;;;;;;;;15.75;100.00;98104.61;1347520;104;20522;-69
2021/05/17 14:51:17;;;;;;;;;;;;;;;15.70;100.00;98102.09;1390942;97;20308;-67
2021/05/17 14:53:46;;;;;;;;;;;;;;;15.69;100.00;98096.42;1461053;96;21140;-69
2021/05/17 14:56:13;;;;;;;;;;;;;;;15.69;100.00;98101.27;1459189;97;20649;-68
2021/05/17 14:58:42;;;;;;;;;;;;;;;15.69;100.00;98106.68;1538187;90;20173;-67
2021/05/17 15:01:09;;;;;;;;;;;;;;;15.62;100.00;98100.97;1604715;87;20170;-68
2021/05/17 15:03:36;;;;;;;;;;;;;;;15.56;100.00;98097.65;1615598;87;20153;-67
2021/05/17 15:06:03;;;;;;;;;;;;;;;15.49;100.00;98104.67;1598463;87;21065;-66
2021/05/17 15:08:30;;;;;;;;;;;;;;;15.39;100.00;98103.09;1611014;87;20165;-67
2021/05/17 15:10:56;;;;;;;;;;;;;;;15.32;100.00;98100.08;1622731;87;20179;-67
2021/05/17 15:13:23;;;;;;;;;;;;;;;15.22;100.00;98093.88;1619247;87;20169;-67
2021/05/17 15:15:50;;;;;;;;;;;;;;;15.17;100.00;98091.91;1614575;87;20236;-66
2021/05/17 15:18:16;;;;;;;;;;;;;;;15.14;100.00;98092.52;1608699;87;21119;-67
2021/05/17 15:20:43;;;;;;;;;;;;;;;15.12;100.00;98086.67;1616346;87;20241;-68
2021/05/17 15:23:19;;;;;;;;;;;;;;;15.09;100.00;98094.86;1616443;87;20272;-68
2021/05/17 15:25:43;;;;;;;;;;;;;;;15.04;100.00;98090.94;1610826;87;20233;-68
2021/05/17 15:28:11;;;;;;;;;;;;;;;15.00;100.00;98089.45;1609083;87;20253;-68
2021/05/17 15:30:38;;;;;;;;;;;;;;;14.99;100.00;98087.87;1612083;87;21119;-69
2021/05/17 15:33:05;;;;;;;;;;;;;;;15.01;100.00;98088.32;1616273;87;20206;-68
2021/05/17 15:35:32;;;;;;;;;;;;;;;15.03;100.00;98085.88;1613765;87;20227;-69
2021/05/17 15:37:59;;;;;;;;;;;;;;;15.04;100.00;98088.23;1618378;87;20166;-69
2021/05/17 15:40:25;;;;;;;;;;;;;;;15.02;100.00;98081.03;1598278;87;20254;-68
2021/05/17 15:42:53;;;;;;;;;;;;;;;15.04;100.00;98080.70;1619323;87;21110;-68
2021/05/17 15:45:23;;;;;;;;;;;;;;;15.02;100.00;98083.73;1618608;87;20153;-68
2021/05/17 15:47:48;;;;;;;;;;;;;;;14.98;100.00;98085.47;1611240;87;20529;-68
2021/05/17 15:50:15;;;;;;;;;;;;;;;14.96;100.00;98083.64;1613168;87;20184;-69
2021/05/17 15:52:42;;;;;;;;;;;;;;;15.01;100.00;98087.53;1587555;87;20187;-67
2021/05/17 15:55:10;;;;;;;;;;;;;;;14.99;100.00;98086.52;1621108;87;20907;-68
2021/05/17 15:57:36;;;;;;;;;;;;;;;14.95;100.00;98081.50;1610302;87;20153;-69
2021/05/17 16:00:05;;;;;;;;;;;;;;;14.97;100.00;98083.89;1614028;87;20309;-68
2021/05/17 16:02:34;;;;;;;;;;;;;;;14.90;100.00;98083.02;1618388;87;20250;-67
2021/05/17 16:05:00;;;;;;;;;;;;;;;14.91;100.00;98082.45;1605800;87;20254;-65
2021/05/17 16:07:27;;;;;;;;;;;;;;;14.87;100.00;98090.41;1607638;87;21124;-66
2021/05/17 16:09:55;;;;;;;;;;;;;;;14.84;100.00;98086.19;1614621;87;20155;-64
2021/05/17 16:12:26;;;;;;;;;;;;;;;14.82;100.00;98091.10;1607973;87;20675;-66
2021/05/17 16:14:56;;;;;;;;;;;;;;;14.76;100.00;98089.91;1619195;87;20213;-63
2021/05/17 16:17:37;;;;;;;;;;;;;;;14.74;100.00;98097.53;1610178;87;20333;-66
2021/05/17 16:22:58;;;;;;;;;;;;;;;14.69;100.00;98096.33;1613295;87;20162;-67
2021/05/17 16:25:25;;;;;;;;;;;;;;;14.68;100.00;98096.67;1606624;87;20211;-64
2021/05/17 16:27:52;;;;;;;;;;;;;;;14.68;100.00;98098.81;1616955;87;20190;-66
2021/05/17 16:30:19;;;;;;;;;;;;;;;14.66;100.00;98098.33;1613695;87;20230;-66
2021/05/17 16:32:47;;;;;;;;;;;;;;;14.63;100.00;98103.02;1606110;87;21047;-65
2021/05/17 16:35:15;;;;;;;;;;;;;;;14.64;100.00;98095.70;1620209;87;20565;-66
2021/05/17 16:37:42;;;;;;;;;;;;;;;14.62;100.00;98098.70;1614062;87;20182;-65
2021/05/17 16:40:11;;;;;;;;;;;;;;;14.60;100.00;98103.66;1612901;87;20189;-65
2021/05/17 16:42:37;;;;;;;;;;;;;;;14.58;100.00;98101.26;1606880;87;20229;-65
2021/05/17 16:45:06;;;;;;;;;;;;;;;14.58;100.00;98094.50;1611654;87;21074;-66
2021/05/17 16:47:32;;;;;;;;;;;;;;;14.56;100.00;98101.33;1611515;87;20188;-67
2021/05/17 16:49:59;;;;;;;;;;;;;;;14.55;100.00;98095.14;1609605;87;20169;-64
2021/05/17 16:52:25;;;;;;;;;;;;;;;14.54;100.00;98096.80;1607575;87;20221;-66
2021/05/17 16:54:53;;;;;;;;;;;;;;;14.53;100.00;98097.36;1614365;87;20216;-66
2021/05/17 16:57:20;;;;;;;;;;;;;;;14.47;100.00;98091.83;1619848;87;21162;-66
2021/05/17 16:59:48;;;;;;;;;;;;;;;14.44;100.00;98098.42;1618190;87;20203;-67
2021/05/17 17:02:14;;;;;;;;;;;;;;;14.43;100.00;98102.21;1605782;87;20252;-67
2021/05/17 17:04:41;;;;;;;;;;;;;;;14.34;100.00;98107.05;1605994;89;20250;-66